Time;durP1;ratioP1;P1;durP2;ratioP2;P2;SDS_P1;SDS_P2;PMS_P1;PMS_P2;Temp;Humidity;BMP_temperature;BMP_pressure;BME280_temperature;BME280_humidity;BME280_pressure;Samples;Min_cycle;Max_cycle;Signal;HPM_P1;HPM_P2
2023/09/24 00:00:56;;;;;;;13.50;5.13;;;;;;;19.39;70.55;98963.75;5060934;28;20090;-79
2023/09/24 00:03:40;;;;;;;14.27;6.13;;;;;;;19.61;70.37;98965.50;5064604;28;20051;-79
2023/09/24 00:06:25;;;;;;;18.10;5.88;;;;;;;19.50;70.71;98962.78;5062818;28;20071;-78
2023/09/24 00:09:09;;;;;;;13.15;5.90;;;;;;;19.37;71.37;98968.53;5058453;28;20398;-79
2023/09/24 00:11:53;;;;;;;20.02;6.07;;;;;;;19.31;71.58;98956.25;5056549;28;20047;-79
2023/09/24 00:14:37;;;;;;;14.30;6.45;;;;;;;19.51;71.86;98956.38;5057203;28;20059;-79
2023/09/24 00:17:21;;;;;;;15.77;5.57;;;;;;;19.46;72.11;98945.72;5062631;28;20552;-78
2023/09/24 00:20:06;;;;;;;12.57;5.53;;;;;;;19.42;72.07;98931.28;5059417;28;20520;-80
2023/09/24 00:22:50;;;;;;;11.65;5.03;;;;;;;19.63;71.80;98942.06;5059610;28;20047;-80
2023/09/24 00:25:34;;;;;;;14.95;5.97;;;;;;;19.32;72.67;98936.56;5060652;28;20114;-79
2023/09/24 00:28:19;;;;;;;13.75;5.63;;;;;;;19.38;72.89;98938.19;5061147;28;20091;-80
2023/09/24 00:31:03;;;;;;;15.38;5.95;;;;;;;19.54;72.25;98931.09;5057787;28;20042;-80
2023/09/24 00:33:47;;;;;;;16.90;5.65;;;;;;;19.62;72.02;98940.47;5058431;28;20084;-79
2023/09/24 00:36:35;;;;;;;17.38;5.45;;;;;;;19.68;71.79;98950.91;5057628;28;20090;-79
2023/09/24 00:39:19;;;;;;;13.15;4.35;;;;;;;19.63;71.95;98948.22;5055599;28;20440;-79
2023/09/24 00:42:05;;;;;;;17.48;5.13;;;;;;;19.22;72.80;98942.59;5059136;28;20495;-79
2023/09/24 00:44:49;;;;;;;15.27;5.65;;;;;;;19.32;72.42;98942.66;5054330;28;20036;-79
2023/09/24 00:47:34;;;;;;;18.35;5.28;;;;;;;19.27;72.80;98935.47;5061727;28;20086;-80
2023/09/24 00:50:18;;;;;;;13.57;5.22;;;;;;;19.03;73.68;98931.50;5061683;28;20065;-79
2023/09/24 00:53:02;;;;;;;13.43;4.70;;;;;;;19.17;73.39;98919.41;5062095;28;20406;-81
2023/09/24 00:55:47;;;;;;;15.43;5.28;;;;;;;19.23;73.51;98921.03;5057012;28;20554;-79
2023/09/24 00:58:34;;;;;;;12.23;5.15;;;;;;;19.15;73.90;98913.53;5060135;28;20066;-80
2023/09/24 01:01:20;;;;;;;12.10;5.30;;;;;;;19.25;73.84;98915.47;5057411;28;20090;-80
2023/09/24 01:04:05;;;;;;;9.25;4.20;;;;;;;19.31;74.02;98918.97;5056288;28;20106;-79
2023/09/24 01:06:50;;;;;;;13.27;5.50;;;;;;;19.32;74.61;98920.59;5060461;28;20047;-78
2023/09/24 01:09:34;;;;;;;14.25;4.93;;;;;;;19.42;74.20;98923.31;5062632;28;20047;-78
2023/09/24 01:12:22;;;;;;;15.65;5.00;;;;;;;19.49;74.60;98920.44;5058079;28;20121;-79
2023/09/24 01:15:13;;;;;;;18.02;5.88;;;;;;;19.56;74.72;98910.38;5056223;28;20066;-79
2023/09/24 01:17:57;;;;;;;13.80;5.45;;;;;;;19.52;75.47;98910.06;5051860;28;20107;-79
2023/09/24 01:20:43;;;;;;;9.75;4.47;;;;;;;19.68;75.49;98918.16;5054809;28;20102;-80
2023/09/24 01:23:29;;;;;;;19.65;5.75;;;;;;;19.61;75.87;98907.72;5062373;28;20043;-79
2023/09/24 01:26:16;;;;;;;13.02;5.22;;;;;;;19.59;76.32;98914.38;5059705;28;20074;-80
2023/09/24 01:29:02;;;;;;;16.92;5.38;;;;;;;19.30;77.68;98901.41;5059800;28;20501;-78
2023/09/24 01:31:46;;;;;;;16.17;5.20;;;;;;;19.35;77.99;98898.78;5060450;28;20102;-78
2023/09/24 01:34:30;;;;;;;13.45;4.93;;;;;;;19.45;78.11;98896.16;5056886;28;20039;-79
2023/09/24 01:37:15;;;;;;;12.68;5.57;;;;;;;19.59;78.13;98903.72;5054354;28;20080;-79
2023/09/24 01:40:00;;;;;;;15.20;5.35;;;;;;;19.24;78.78;98895.25;5053048;28;20091;-79
2023/09/24 01:42:45;;;;;;;24.80;6.00;;;;;;;19.33;78.79;98900.91;5060429;28;20043;-80
2023/09/24 01:45:30;;;;;;;18.55;5.78;;;;;;;19.49;78.13;98889.28;5061899;28;20035;-79
2023/09/24 01:48:17;;;;;;;16.98;6.13;;;;;;;19.37;78.72;98875.38;5057221;28;20539;-80
2023/09/24 01:51:09;;;;;;;16.38;5.93;;;;;;;19.30;79.27;98878.25;5054349;28;20085;-80
2023/09/24 01:53:54;;;;;;;19.58;6.57;;;;;;;19.56;78.72;98883.75;5060150;28;20048;-80
2023/09/24 01:56:38;;;;;;;13.90;5.63;;;;;;;19.53;78.87;98879.72;5062458;28;20044;-79
2023/09/24 01:59:22;;;;;;;16.63;6.03;;;;;;;19.61;78.74;98873.13;5057351;28;20355;-81
2023/09/24 02:02:09;;;;;;;9.35;5.00;;;;;;;19.44;79.42;98875.94;5059299;28;20048;-80
2023/09/24 02:04:54;;;;;;;18.35;6.63;;;;;;;19.58;79.09;98868.31;5059827;28;20095;-79
2023/09/24 02:07:39;;;;;;;15.82;5.93;;;;;;;19.74;79.05;98873.69;5058430;28;20184;-80
2023/09/24 02:10:23;;;;;;;15.88;5.80;;;;;;;20.03;78.54;98855.47;5055656;28;20102;-81
2023/09/24 02:13:08;;;;;;;16.65;6.10;;;;;;;19.66;79.37;98857.16;5058573;28;20070;-80
2023/09/24 02:15:52;;;;;;;19.35;6.38;;;;;;;19.83;79.17;98862.28;5059980;28;20117;-79
2023/09/24 02:18:36;;;;;;;18.83;6.20;;;;;;;19.97;79.22;98856.53;5062746;28;20184;-79
2023/09/24 02:21:21;;;;;;;15.32;5.70;;;;;;;19.36;80.94;98861.28;5058232;28;20374;-80
2023/09/24 02:24:06;;;;;;;15.25;5.63;;;;;;;19.50;80.77;98864.28;5057467;28;20393;-79
2023/09/24 02:26:50;;;;;;;12.18;5.38;;;;;;;19.72;80.15;98870.50;5058014;28;20104;-79
2023/09/24 02:29:35;;;;;;;14.90;6.15;;;;;;;19.79;79.65;98850.56;5061596;28;20048;-80
2023/09/24 02:32:19;;;;;;;15.32;6.15;;;;;;;19.76;80.08;98845.75;5059207;28;20114;-79
2023/09/24 02:35:04;;;;;;;20.52;5.93;;;;;;;19.61;80.46;98853.66;5056248;28;20056;-79
2023/09/24 02:37:51;;;;;;;15.95;5.97;;;;;;;19.73;80.74;98853.47;5052789;28;20063;-79
2023/09/24 02:40:35;;;;;;;14.93;5.95;;;;;;;19.47;81.49;98851.50;5060123;28;20043;-80
2023/09/24 02:43:19;;;;;;;13.23;5.65;;;;;;;19.47;81.95;98854.16;5053706;28;20054;-80
2023/09/24 02:46:05;;;;;;;17.35;5.90;;;;;;;19.48;82.07;98849.63;5053374;28;20544;-79
2023/09/24 02:48:51;;;;;;;12.68;5.88;;;;;;;19.49;82.07;98852.03;5051096;28;20094;-80
2023/09/24 02:51:35;;;;;;;13.38;6.03;;;;;;;19.51;82.47;98849.91;5059934;28;20188;-79
2023/09/24 02:54:19;;;;;;;12.93;6.45;;;;;;;19.49;82.37;98819.28;5061677;28;20124;-79
2023/09/24 02:57:03;;;;;;;14.75;6.03;;;;;;;19.59;82.22;98823.84;5055966;28;20040;-80
2023/09/24 02:59:47;;;;;;;13.55;5.63;;;;;;;19.72;82.07;98812.72;5051328;28;20481;-79
2023/09/24 03:02:32;;;;;;;13.50;6.22;;;;;;;19.67;82.40;98826.03;5056707;28;20043;-80
2023/09/24 03:05:24;;;;;;;16.45;6.80;;;;;;;19.81;82.29;98827.13;5056381;28;20175;-80
2023/09/24 03:08:15;;;;;;;18.58;6.63;;;;;;;19.80;82.54;98822.09;5055627;28;20039;-80
2023/09/24 03:10:59;;;;;;;18.20;6.82;;;;;;;19.54;83.24;98812.13;5063035;28;20039;-78
2023/09/24 03:13:43;;;;;;;16.35;6.90;;;;;;;19.53;83.38;98821.16;5055912;28;20521;-79
2023/09/24 03:16:29;;;;;;;15.13;6.20;;;;;;;19.76;83.41;98818.34;5057315;28;20044;-79
2023/09/24 03:19:13;;;;;;;16.40;6.38;;;;;;;19.88;83.26;98815.47;5059456;28;20048;-79
2023/09/24 03:21:57;;;;;;;13.95;6.18;;;;;;;19.73;83.89;98817.00;5060217;28;20113;-79
2023/09/24 03:24:42;;;;;;;16.85;6.32;;;;;;;20.04;83.34;98822.44;5056571;28;20051;-78
2023/09/24 03:27:26;;;;;;;15.73;6.07;;;;;;;20.02;83.32;98813.13;5063762;28;20134;-79
2023/09/24 03:30:14;;;;;;;12.20;6.15;;;;;;;20.31;83.70;98832.09;5060323;28;20043;-78
2023/09/24 03:32:58;;;;;;;12.77;5.72;;;;;;;20.30;84.04;98827.84;5064339;28;20492;-78
2023/09/24 03:35:42;;;;;;;12.90;6.30;;;;;;;20.51;83.11;98819.88;5053826;28;20052;-79
2023/09/24 03:38:26;;;;;;;11.23;5.60;;;;;;;20.41;83.80;98826.00;5061141;28;20130;-79
2023/09/24 03:41:10;;;;;;;15.27;6.68;;;;;;;20.17;84.43;98829.16;5059991;28;20057;-79
2023/09/24 03:43:54;;;;;;;12.45;6.68;;;;;;;20.34;84.67;98817.44;5057704;28;20087;-80
2023/09/24 03:46:38;;;;;;;8.80;5.63;;;;;;;20.07;85.41;98819.28;5060338;28;20043;-79
2023/09/24 03:49:22;;;;;;;11.82;5.90;;;;;;;20.33;84.88;98813.97;5064830;28;20063;-79
2023/09/24 03:52:07;;;;;;;10.25;5.65;;;;;;;20.24;85.38;98818.22;5062458;28;20383;-79
2023/09/24 03:54:52;;;;;;;11.63;5.80;;;;;;;20.16;85.96;98816.06;5062750;28;20394;-79
2023/09/24 03:57:38;;;;;;;10.88;6.32;;;;;;;20.42;85.40;98800.94;5057645;28;20430;-79
2023/09/24 04:00:22;;;;;;;12.63;5.95;;;;;;;20.28;86.05;98803.31;5062725;28;20304;-80
2023/09/24 04:03:07;;;;;;;10.80;5.72;;;;;;;20.34;86.19;98802.25;5060778;28;20442;-79
2023/09/24 04:05:52;;;;;;;10.75;5.40;;;;;;;20.39;86.14;98810.25;5057253;28;20454;-79
2023/09/24 04:08:37;;;;;;;11.95;6.22;;;;;;;20.27;87.09;98817.72;5063317;28;20513;-79
2023/09/24 04:11:21;;;;;;;9.70;5.72;;;;;;;20.28;86.99;98792.66;5056584;28;20071;-80
2023/09/24 04:14:05;;;;;;;9.50;5.18;;;;;;;20.54;86.83;98820.16;5056736;28;20541;-79
2023/09/24 04:16:49;;;;;;;8.60;5.57;;;;;;;20.53;86.94;98823.84;5060099;28;20063;-79
2023/09/24 04:19:33;;;;;;;8.23;5.00;;;;;;;20.40;87.33;98822.50;5063006;28;20450;-80
2023/09/24 04:22:18;;;;;;;9.80;5.60;;;;;;;20.39;87.52;98812.91;5058417;28;20509;-78
2023/09/24 04:25:03;;;;;;;8.68;5.40;;;;;;;20.50;87.90;98812.94;5063430;28;20065;-79
2023/09/24 04:27:48;;;;;;;9.63;5.82;;;;;;;20.38;88.08;98808.66;5060258;28;20040;-79
2023/09/24 04:30:32;;;;;;;12.57;6.80;;;;;;;20.68;87.44;98801.75;5060878;28;20040;-79
2023/09/24 04:33:17;;;;;;;8.00;5.07;;;;;;;20.73;87.23;98818.81;5057810;28;20559;-79
2023/09/24 04:36:01;;;;;;;9.43;5.82;;;;;;;20.67;88.17;98810.00;5060470;28;20370;-79
2023/09/24 04:38:47;;;;;;;9.63;5.80;;;;;;;20.60;88.30;98802.25;5051955;28;20060;-79
2023/09/24 04:41:31;;;;;;;7.80;5.15;;;;;;;20.75;87.99;98800.66;5057628;28;20501;-79
2023/09/24 04:44:16;;;;;;;8.15;5.75;;;;;;;20.85;88.09;98811.38;5064902;28;20074;-80
2023/09/24 04:47:00;;;;;;;7.45;4.97;;;;;;;20.82;87.86;98802.03;5053585;28;20081;-79
2023/09/24 04:49:44;;;;;;;10.52;5.00;;;;;;;20.82;87.84;98806.53;5058620;28;20055;-80
2023/09/24 04:52:28;;;;;;;6.93;4.18;;;;;;;20.88;88.05;98799.34;5055012;28;20157;-78
2023/09/24 04:55:13;;;;;;;10.85;4.45;;;;;;;21.05;87.77;98788.41;5059109;28;20513;-79
2023/09/24 04:57:57;;;;;;;8.95;3.80;;;;;;;21.08;87.19;98795.84;5057044;28;20048;-80
2023/09/24 05:00:42;;;;;;;4.40;3.00;;;;;;;20.95;87.18;98783.88;5060367;28;20076;-80
2023/09/24 05:03:25;;;;;;;6.55;3.45;;;;;;;20.83;88.66;98789.47;5065001;28;20078;-80
2023/09/24 05:06:09;;;;;;;7.63;3.75;;;;;;;20.97;87.87;98782.53;5058076;28;20043;-78
2023/09/24 05:08:54;;;;;;;6.65;3.60;;;;;;;21.06;87.82;98779.31;5060702;28;20040;-78
2023/09/24 05:11:38;;;;;;;5.03;3.17;;;;;;;21.01;88.01;98792.66;5058533;28;20500;-79
2023/09/24 05:14:22;;;;;;;5.18;3.60;;;;;;;21.13;88.09;98785.16;5061270;28;20061;-79
2023/09/24 05:17:07;;;;;;;6.10;3.70;;;;;;;21.21;87.99;98787.25;5059251;28;20044;-79
2023/09/24 05:19:51;;;;;;;7.28;4.00;;;;;;;20.82;88.81;98790.53;5058228;28;20043;-79
2023/09/24 05:22:35;;;;;;;5.90;3.95;;;;;;;21.07;89.05;98788.91;5051968;28;20043;-80
2023/09/24 05:25:19;;;;;;;5.10;4.00;;;;;;;21.28;88.33;98811.00;5058452;28;20059;-81
2023/09/24 05:28:04;;;;;;;7.88;4.07;;;;;;;21.08;89.31;98793.19;5056034;28;20095;-80
2023/09/24 05:30:53;;;;;;;6.72;4.10;;;;;;;21.35;88.57;98795.53;5054531;28;20095;-80
2023/09/24 05:33:38;;;;;;;7.93;5.35;;;;;;;21.37;88.52;98804.06;5057523;28;20047;-80
2023/09/24 05:36:23;;;;;;;9.82;5.85;;;;;;;21.18;89.56;98803.81;5058450;28;20667;-80
2023/09/24 05:39:08;;;;;;;9.70;6.60;;;;;;;21.22;89.35;98802.25;5056754;28;20102;-80
2023/09/24 05:41:53;;;;;;;10.32;7.38;;;;;;;21.38;89.44;98811.00;5060583;28;20059;-80
2023/09/24 05:44:37;;;;;;;12.07;7.90;;;;;;;21.45;89.12;98810.72;5059115;28;20044;-81
2023/09/24 05:47:21;;;;;;;13.90;8.55;;;;;;;21.42;89.28;98795.25;5057389;28;20490;-80
2023/09/24 05:50:05;;;;;;;16.48;10.80;;;;;;;20.95;91.74;98805.22;5059052;28;20040;-80
2023/09/24 05:52:50;;;;;;;16.38;11.07;;;;;;;21.33;91.11;98804.88;5061098;28;20063;-80
2023/09/24 05:55:34;;;;;;;17.02;12.38;;;;;;;20.92;92.55;98800.41;5054541;28;20040;-80
2023/09/24 05:58:18;;;;;;;15.07;12.02;;;;;;;20.98;92.71;98802.78;5059055;28;20102;-80
2023/09/24 06:01:03;;;;;;;21.08;12.23;;;;;;;21.03;93.02;98795.84;5054405;28;20121;-79
2023/09/24 06:03:47;;;;;;;23.88;11.27;;;;;;;21.23;92.83;98798.50;5056939;28;20040;-80
2023/09/24 06:06:31;;;;;;;19.98;11.48;;;;;;;21.20;93.67;98799.00;5058464;28;20126;-80
2023/09/24 06:09:17;;;;;;;22.15;10.85;;;;;;;21.28;93.61;98803.00;5059220;28;20525;-79
2023/09/24 06:12:01;;;;;;;17.10;10.65;;;;;;;21.28;93.75;98813.69;5052076;28;20040;-80
2023/09/24 06:14:44;;;;;;;20.10;10.95;;;;;;;21.37;93.65;98805.91;5058369;28;20040;-80
2023/09/24 06:17:29;;;;;;;16.30;10.02;;;;;;;21.57;93.07;98809.59;5055273;28;20075;-81
2023/09/24 06:20:13;;;;;;;12.25;9.05;;;;;;;21.34;94.04;98817.94;5060544;28;20053;-81
2023/09/24 06:22:57;;;;;;;10.23;7.65;;;;;;;21.33;94.32;98812.88;5060756;28;20089;-80
2023/09/24 06:25:41;;;;;;;14.23;7.88;;;;;;;21.39;93.93;98819.78;5062687;28;20575;-81
2023/09/24 06:28:26;;;;;;;8.50;6.60;;;;;;;21.48;94.28;98823.50;5058265;28;20039;-79
2023/09/24 06:31:10;;;;;;;10.70;6.75;;;;;;;21.59;94.29;98832.28;5053547;28;20119;-82
2023/09/24 06:33:54;;;;;;;6.47;5.60;;;;;;;21.57;93.93;98829.09;5057024;28;20150;-82
2023/09/24 06:36:39;;;;;;;8.60;5.97;;;;;;;21.76;94.14;98834.66;5049817;28;20067;-81
2023/09/24 06:39:25;;;;;;;8.43;5.80;;;;;;;21.69;94.59;98826.91;5051693;28;20091;-80
2023/09/24 06:42:09;;;;;;;7.38;5.72;;;;;;;21.89;93.62;98827.13;5059904;28;20093;-81
2023/09/24 06:44:54;;;;;;;6.07;4.82;;;;;;;21.96;94.13;98831.09;5054303;28;20174;-81
2023/09/24 06:47:38;;;;;;;6.35;4.85;;;;;;;21.79;95.03;98825.28;5058287;28;20067;-80
2023/09/24 06:50:22;;;;;;;9.10;5.88;;;;;;;21.96;94.00;98839.13;5061429;28;20106;-81
2023/09/24 06:53:06;;;;;;;8.32;6.70;;;;;;;21.89;94.65;98837.81;5057654;28;20038;-80
2023/09/24 06:55:50;;;;;;;8.57;6.45;;;;;;;21.80;95.06;98837.59;5058403;28;20417;-81
2023/09/24 06:58:35;;;;;;;13.80;7.90;;;;;;;21.89;95.21;98838.59;5061175;28;20044;-80
2023/09/24 07:01:19;;;;;;;11.80;8.02;;;;;;;22.42;93.47;98847.16;5059519;28;20056;-81
2023/09/24 07:04:05;;;;;;;11.90;8.98;;;;;;;22.39;93.84;98851.16;5055758;28;20098;-81
2023/09/24 07:06:53;;;;;;;18.15;10.23;;;;;;;22.38;93.49;98854.91;5060893;28;20067;-81
2023/09/24 07:09:37;;;;;;;18.08;10.23;;;;;;;22.25;93.46;98856.34;5060725;28;20401;-82
2023/09/24 07:12:22;;;;;;;17.70;10.18;;;;;;;22.08;94.43;98857.50;5063351;28;20135;-80
2023/09/24 07:15:06;;;;;;;21.67;12.05;;;;;;;22.02;94.88;98858.59;5055529;28;20036;-79
2023/09/24 07:17:50;;;;;;;19.83;12.30;;;;;;;21.93;95.06;98849.53;5059568;28;20437;-80
2023/09/24 07:20:34;;;;;;;18.98;12.30;;;;;;;22.15;94.94;98856.38;5057316;28;20052;-81
2023/09/24 07:23:18;;;;;;;18.38;12.52;;;;;;;22.28;94.64;98842.41;5061420;28;20090;-81
2023/09/24 07:26:05;;;;;;;23.52;14.73;;;;;;;22.24;95.37;98846.72;5054836;28;20068;-81
2023/09/24 07:28:50;;;;;;;24.77;15.18;;;;;;;22.34;95.21;98843.97;5058070;28;20391;-80
2023/09/24 07:31:35;;;;;;;29.15;17.20;;;;;;;22.06;95.68;98837.44;5059063;28;20093;-79
2023/09/24 07:34:19;;;;;;;29.85;17.27;;;;;;;22.01;96.13;98846.31;5060448;28;20051;-78
2023/09/24 07:37:05;;;;;;;22.38;15.55;;;;;;;22.04;96.46;98845.75;5058941;28;20090;-80
2023/09/24 07:39:49;;;;;;;20.42;14.38;;;;;;;22.16;96.22;98832.06;5061400;28;20075;-79
2023/09/24 07:42:33;;;;;;;23.13;14.63;;;;;;;22.34;96.04;98838.63;5059877;28;20528;-80
2023/09/24 07:45:18;;;;;;;18.23;13.15;;;;;;;22.21;96.57;98839.25;5062282;28;20170;-79
2023/09/24 07:48:06;;;;;;;22.75;12.75;;;;;;;22.40;96.24;98853.56;5061215;28;20040;-79
2023/09/24 07:50:54;;;;;;;16.65;12.10;;;;;;;22.63;95.86;98851.31;5060082;28;20089;-81
2023/09/24 07:53:38;;;;;;;19.85;11.43;;;;;;;22.82;95.35;98847.94;5056840;28;20047;-80
2023/09/24 07:56:22;;;;;;;16.15;12.00;;;;;;;22.82;95.03;98853.28;5061428;28;20051;-80
2023/09/24 07:59:07;;;;;;;14.35;10.05;;;;;;;22.72;95.91;98864.88;5059428;28;20114;-79
2023/09/24 08:01:51;;;;;;;18.42;9.40;;;;;;;22.78;95.45;98868.28;5056366;28;20130;-80
2023/09/24 08:04:35;;;;;;;14.13;8.38;;;;;;;22.88;95.89;98852.16;5055223;28;20513;-79
2023/09/24 08:07:18;;;;;;;;;;;;;;;22.76;96.11;98859.75;5059300;28;20402;-80
2023/09/24 08:10:03;;;;;;;11.05;6.78;;;;;;;22.85;96.17;98866.09;5061809;28;19971;-81
2023/09/24 08:12:47;;;;;;;11.77;6.43;;;;;;;22.63;96.90;98862.00;5050954;28;20976;-80
2023/09/24 08:15:31;;;;;;;10.60;6.28;;;;;;;23.21;95.24;98859.63;5061527;28;20084;-79
2023/09/24 08:18:17;;;;;;;14.27;6.30;;;;;;;23.23;95.12;98858.28;5059419;28;20052;-79
2023/09/24 08:21:01;;;;;;;9.15;5.22;;;;;;;23.18;95.48;98860.97;5059658;28;20047;-80
2023/09/24 08:23:46;;;;;;;11.38;4.85;;;;;;;23.37;95.34;98854.94;5057086;28;20040;-80
2023/09/24 08:26:33;;;;;;;10.13;4.63;;;;;;;23.61;95.22;98846.91;5063103;28;20577;-80
2023/09/24 08:29:17;;;;;;;6.90;4.10;;;;;;;23.40;94.76;98857.06;5060174;28;20047;-79
2023/09/24 08:32:01;;;;;;;7.15;3.72;;;;;;;23.59;94.44;98848.28;5062763;28;20032;-78
2023/09/24 08:34:45;;;;;;;13.55;4.13;;;;;;;23.50;94.72;98859.63;5057098;28;20074;-80
2023/09/24 08:37:29;;;;;;;8.18;4.32;;;;;;;23.59;94.57;98857.13;5062721;28;20106;-81
2023/09/24 08:40:18;;;;;;;8.55;3.80;;;;;;;23.37;95.15;98849.56;5058805;28;20047;-80
2023/09/24 08:43:09;;;;;;;8.30;3.75;;;;;;;23.44;95.86;98859.97;5058799;28;20087;-80
2023/09/24 08:45:53;;;;;;;11.10;4.75;;;;;;;23.24;96.44;98859.88;5054810;28;20052;-81
2023/09/24 08:48:39;;;;;;;10.27;4.60;;;;;;;23.68;96.53;98852.75;5057735;28;20047;-80
2023/09/24 08:51:23;;;;;;;9.77;4.22;;;;;;;23.65;96.46;98847.94;5056848;28;20044;-81
2023/09/24 08:54:07;;;;;;;8.00;4.13;;;;;;;23.76;96.47;98848.59;5056274;28;20571;-82
2023/09/24 08:56:51;;;;;;;10.75;4.03;;;;;;;23.97;95.57;98853.69;5055132;28;20063;-85
2023/09/24 08:59:36;;;;;;;9.25;3.78;;;;;;;23.93;96.01;98858.84;5052876;28;20046;-80
2023/09/24 09:02:21;;;;;;;9.75;4.25;;;;;;;24.04;96.06;98853.38;5057078;28;20048;-81
2023/09/24 09:05:09;;;;;;;7.30;3.45;;;;;;;24.27;95.06;98840.19;5060520;28;20500;-82
2023/09/24 09:07:59;;;;;;;10.75;3.42;;;;;;;24.85;94.56;98849.78;5059396;28;20490;-82
2023/09/24 09:10:43;;;;;;;6.18;3.15;;;;;;;24.59;94.06;98839.47;5059066;28;20134;-82
2023/09/24 09:13:27;;;;;;;8.20;2.75;;;;;;;24.67;94.68;98844.16;5059230;28;20190;-82
2023/09/24 09:16:14;;;;;;;4.22;2.95;;;;;;;24.74;93.62;98841.09;5061075;28;20043;-83
2023/09/24 09:19:03;;;;;;;6.43;2.60;;;;;;;24.62;93.11;98841.56;5062043;28;20090;-82
2023/09/24 09:21:47;;;;;;;4.25;2.28;;;;;;;24.66;93.60;98847.09;5060196;28;20048;-82
2023/09/24 09:24:31;;;;;;;6.10;2.40;;;;;;;24.03;94.94;98831.16;5055484;28;20052;-82
2023/09/24 09:27:15;;;;;;;5.70;1.92;;;;;;;23.87;95.51;98846.59;5058815;28;20050;-82
2023/09/24 09:30:17;;;;;;;4.88;2.17;;;;;;;24.14;94.90;98841.72;5058819;28;20071;-82
2023/09/24 09:33:01;;;;;;;3.20;2.30;;;;;;;24.00;95.20;98857.69;5056104;28;20370;-82
2023/09/24 09:35:45;;;;;;;4.95;2.40;;;;;;;24.22;94.94;98849.13;5059536;28;20508;-82
2023/09/24 09:38:30;;;;;;;3.55;2.50;;;;;;;24.10;94.82;98853.03;5060442;28;20056;-83
2023/09/24 09:41:17;;;;;;;6.47;2.53;;;;;;;24.40;93.89;98855.56;5058103;28;20083;-82
2023/09/24 09:44:05;;;;;;;4.38;2.60;;;;;;;24.19;94.41;98845.13;5056941;28;20557;-83
2023/09/24 09:46:51;;;;;;;9.23;2.72;;;;;;;23.99;95.37;98850.75;5059318;28;20164;-82
2023/09/24 09:49:42;;;;;;;5.43;3.30;;;;;;;24.13;95.34;98846.28;5062813;28;20098;-83
2023/09/24 09:52:43;;;;;;;7.60;3.47;;;;;;;24.16;95.36;98840.34;5059009;28;20055;-81
2023/09/24 09:55:27;;;;;;;9.90;4.45;;;;;;;24.48;94.79;98849.56;5061114;28;20036;-82
2023/09/24 09:58:12;;;;;;;7.90;4.70;;;;;;;24.38;94.91;98839.78;5061770;28;20456;-82
2023/09/24 10:00:57;;;;;;;6.70;4.88;;;;;;;24.88;94.69;98841.16;5059852;28;20035;-82
2023/09/24 10:03:44;;;;;;;8.27;5.50;;;;;;;25.23;93.54;98832.75;5059670;28;20044;-82
2023/09/24 10:06:34;;;;;;;6.90;4.55;;;;;;;25.44;93.82;98838.53;5062541;28;20086;-82
2023/09/24 10:09:27;;;;;;;8.73;4.47;;;;;;;26.28;91.12;98833.06;5061884;28;20505;-82
2023/09/24 10:12:11;;;;;;;7.00;4.40;;;;;;;26.54;90.53;98828.97;5054486;28;20044;-82
2023/09/24 10:14:56;;;;;;;5.22;3.85;;;;;;;26.28;89.21;98826.91;5061380;28;20409;-82
2023/09/24 10:17:42;;;;;;;6.85;3.80;;;;;;;26.54;88.71;98831.69;5061026;28;20094;-82
2023/09/24 10:20:48;;;;;;;5.38;3.65;;;;;;;26.76;87.88;98845.13;5067311;28;20406;-82
2023/09/24 10:23:35;;;;;;;3.20;2.67;;;;;;;26.31;88.04;98848.59;5064900;28;20048;-82
2023/09/24 10:27:03;;;;;;;5.97;3.47;;;;;;;25.88;89.20;98841.72;5059142;28;20410;-82
2023/09/24 10:30:00;;;;;;;5.25;3.50;;;;;;;25.59;88.40;98845.53;5036326;28;20091;-81
2023/09/24 10:32:45;;;;;;;4.95;3.13;;;;;;;25.83;88.76;98843.72;5036597;28;20390;-83
2023/09/24 10:35:29;;;;;;;5.53;3.25;;;;;;;25.50;89.20;98834.69;5093119;28;20130;-81
2023/09/24 10:38:13;;;;;;;4.53;2.83;;;;;;;25.49;89.03;98835.78;5063057;28;20098;-82
2023/09/24 10:41:05;;;;;;;5.70;2.85;;;;;;;24.71;91.29;98843.56;5059250;28;20548;-82
2023/09/24 10:44:24;;;;;;;4.43;2.90;;;;;;;25.11;90.50;98843.97;5067782;28;20086;-82
2023/09/24 10:47:34;;;;;;;5.15;2.72;;;;;;;25.42;89.49;98840.72;5056180;28;20055;-81
2023/09/24 10:50:20;;;;;;;5.03;3.03;;;;;;;25.12;90.64;98837.50;5063867;28;20051;-82
2023/09/24 10:53:05;;;;;;;4.05;3.25;;;;;;;25.15;90.31;98842.28;5057355;28;20123;-82
2023/09/24 10:55:49;;;;;;;6.30;3.53;;;;;;;25.05;90.60;98834.44;5061874;28;20115;-82
2023/09/24 10:58:33;;;;;;;4.50;3.03;;;;;;;24.85;91.03;98838.25;5066567;28;20044;-83
2023/09/24 11:01:29;;;;;;;9.77;3.08;;;;;;;24.95;91.40;98844.25;5065139;28;20502;-81
2023/09/24 11:04:24;;;;;;;5.40;2.90;;;;;;;24.88;91.94;98835.00;5064326;28;20051;-82
2023/09/24 11:07:09;;;;;;;3.67;2.40;;;;;;;25.00;92.04;98829.94;5062637;28;20087;-81
2023/09/24 11:09:53;;;;;;;5.15;2.30;;;;;;;25.19;92.35;98829.88;5066486;28;20540;-81
2023/09/24 11:12:46;;;;;;;2.22;1.90;;;;;;;25.31;92.22;98833.94;5058561;28;20079;-83
2023/09/24 11:15:32;;;;;;;3.17;2.00;;;;;;;25.63;91.89;98824.22;5066735;28;20505;-81
2023/09/24 11:18:16;;;;;;;2.08;1.88;;;;;;;25.55;91.23;98823.03;5064235;28;20068;-81
2023/09/24 11:21:01;;;;;;;4.57;1.95;;;;;;;25.84;91.32;98826.50;5063895;28;20071;-81
2023/09/24 11:23:44;;;;;;;;;;;;;;;25.83;91.48;98823.00;5058247;28;20094;-81
2023/09/24 11:26:29;;;;;;;2.70;1.85;;;;;;;26.10;90.20;98816.75;5058450;28;19931;-82
2023/09/24 11:29:13;;;;;;;3.92;2.08;;;;;;;26.16;90.57;98803.22;5057383;28;20087;-81
2023/09/24 11:31:57;;;;;;;5.03;1.95;;;;;;;26.63;89.37;98806.41;5061870;28;20051;-81
2023/09/24 11:34:41;;;;;;;2.85;1.75;;;;;;;26.66;88.40;98803.09;5063314;28;20477;-82
2023/09/24 11:37:25;;;;;;;3.65;1.75;;;;;;;26.96;87.82;98801.88;5059242;28;20063;-80
2023/09/24 11:40:29;;;;;;;4.07;1.60;;;;;;;27.03;86.13;98799.50;5063947;28;20112;-82
2023/09/24 11:43:15;;;;;;;5.00;1.90;;;;;;;27.04;86.46;98793.03;5058564;28;20103;-80
2023/09/24 11:45:59;;;;;;;3.67;2.00;;;;;;;27.72;85.60;98787.38;5058420;28;20043;-83
2023/09/24 11:48:44;;;;;;;5.25;2.35;;;;;;;28.22;82.90;98793.44;5060391;28;20044;-82
2023/09/24 11:51:29;;;;;;;5.93;2.50;;;;;;;27.86;82.32;98789.13;5065785;28;20398;-82
2023/09/24 11:54:15;;;;;;;5.03;2.47;;;;;;;28.03;81.64;98791.81;5055747;28;20461;-81
2023/09/24 11:56:59;;;;;;;6.05;2.25;;;;;;;27.60;81.79;98785.28;5065929;28;20042;-82
2023/09/24 11:59:43;;;;;;;3.88;2.63;;;;;;;27.45;81.65;98780.31;5061853;28;20438;-82
2023/09/24 12:02:27;;;;;;;6.22;2.58;;;;;;;27.74;81.79;98777.06;5060199;28;20110;-81
2023/09/24 12:05:11;;;;;;;6.00;2.47;;;;;;;27.36;82.47;98781.09;5058436;28;20047;-81
2023/09/24 12:07:55;;;;;;;7.57;2.50;;;;;;;27.29;82.11;98780.75;5066395;28;20044;-81
2023/09/24 12:10:42;;;;;;;6.43;2.47;;;;;;;27.72;80.85;98773.91;5065444;28;20081;-82
2023/09/24 12:13:26;;;;;;;4.53;2.08;;;;;;;28.47;79.32;98769.41;5060524;28;20408;-81
2023/09/24 12:16:10;;;;;;;4.47;2.25;;;;;;;28.51;78.94;98770.38;5057758;28;20094;-81
2023/09/24 12:18:53;;;;;;;5.97;2.35;;;;;;;28.36;77.28;98769.78;5062148;28;20051;-81
2023/09/24 12:21:37;;;;;;;7.20;2.80;;;;;;;28.43;78.08;98768.47;5062593;28;20051;-80
2023/09/24 12:24:21;;;;;;;5.10;2.35;;;;;;;28.34;77.85;98760.41;5063227;28;20055;-81
2023/09/24 12:27:06;;;;;;;7.68;2.70;;;;;;;27.93;79.07;98774.06;5063789;28;20102;-80
2023/09/24 12:29:50;;;;;;;6.13;2.83;;;;;;;28.39;77.98;98764.84;5059118;28;20051;-80
2023/09/24 12:32:38;;;;;;;4.70;2.40;;;;;;;28.20;78.36;98753.31;5057967;28;20090;-81
2023/09/24 12:35:23;;;;;;;4.75;2.30;;;;;;;28.50;77.02;98741.81;5061994;28;20106;-81
2023/09/24 12:38:08;;;;;;;6.95;2.33;;;;;;;27.99;77.98;98750.41;5059566;28;20095;-81
2023/09/24 12:40:53;;;;;;;4.90;2.50;;;;;;;27.95;77.84;98757.56;5058856;28;20441;-81
2023/09/24 12:43:38;;;;;;;5.85;2.60;;;;;;;27.29;79.21;98739.53;5058573;28;20047;-81
2023/09/24 12:46:22;;;;;;;7.10;2.45;;;;;;;27.02;80.17;98746.75;5062327;28;20064;-81
2023/09/24 12:49:06;;;;;;;4.65;2.45;;;;;;;26.87;80.50;98746.06;5064477;28;20063;-81
2023/09/24 12:51:51;;;;;;;4.38;2.80;;;;;;;26.29;81.51;98743.19;5055213;28;20052;-81
2023/09/24 12:54:35;;;;;;;6.68;2.50;;;;;;;26.46;82.08;98741.72;5061626;28;20035;-83